sensor_id;sensor_type;location;lat;lon;timestamp;P1;durP1;ratioP1;P2;durP2;ratioP2
13855;SDS011;6998;53.608;9.958;2023-04-06T09:22:09;7.18;;;4.80;;
13855;SDS011;6998;53.608;9.958;2023-04-06T09:28:50;7.97;;;4.55;;
13855;SDS011;6998;53.608;9.958;2023-04-06T09:31:22;6.45;;;5.05;;
13855;SDS011;6998;53.608;9.958;2023-04-06T09:43:46;10.30;;;6.38;;
13855;SDS011;6998;53.608;9.958;2023-04-06T09:46:14;18.70;;;9.07;;
13855;SDS011;6998;53.608;9.958;2023-04-06T09:48:43;32.65;;;14.80;;
13855;SDS011;6998;53.608;9.958;2023-04-06T09:51:10;8.77;;;5.50;;
13855;SDS011;6998;53.608;9.958;2023-04-06T09:53:41;9.00;;;5.50;;
13855;SDS011;6998;53.608;9.958;2023-04-06T09:56:16;12.18;;;8.80;;
13855;SDS011;6998;53.608;9.958;2023-04-06T09:58:51;11.65;;;7.25;;
13855;SDS011;6998;53.608;9.958;2023-04-06T10:01:22;6.57;;;5.15;;
13855;SDS011;6998;53.608;9.958;2023-04-06T10:03:55;7.47;;;5.32;;
13855;SDS011;6998;53.608;9.958;2023-04-06T10:06:30;6.03;;;4.82;;
13855;SDS011;6998;53.608;9.958;2023-04-06T10:09:00;6.30;;;4.60;;
13855;SDS011;6998;53.608;9.958;2023-04-06T10:11:30;4.93;;;4.20;;
13855;SDS011;6998;53.608;9.958;2023-04-06T10:14:00;5.18;;;3.70;;
13855;SDS011;6998;53.608;9.958;2023-04-06T10:16:38;4.63;;;4.03;;
13855;SDS011;6998;53.608;9.958;2023-04-06T10:19:06;5.32;;;3.78;;
13855;SDS011;6998;53.608;9.958;2023-04-06T10:21:41;6.05;;;4.45;;
13855;SDS011;6998;53.608;9.958;2023-04-06T10:24:12;4.90;;;4.10;;
13855;SDS011;6998;53.608;9.958;2023-04-06T10:26:39;5.00;;;4.45;;
13855;SDS011;6998;53.608;9.958;2023-04-06T10:29:07;5.10;;;4.38;;
13855;SDS011;6998;53.608;9.958;2023-04-06T10:31:39;5.05;;;4.18;;
13855;SDS011;6998;53.608;9.958;2023-04-06T10:34:09;6.68;;;4.15;;
13855;SDS011;6998;53.608;9.958;2023-04-06T10:36:39;4.90;;;3.75;;
13855;SDS011;6998;53.608;9.958;2023-04-06T10:39:07;5.82;;;4.22;;
13855;SDS011;6998;53.608;9.958;2023-04-06T10:41:34;5.00;;;3.80;;
13855;SDS011;6998;53.608;9.958;2023-04-06T10:44:08;5.82;;;4.28;;
13855;SDS011;6998;53.608;9.958;2023-04-06T10:46:51;5.28;;;4.75;;
13855;SDS011;6998;53.608;9.958;2023-04-06T10:49:20;4.85;;;4.40;;
13855;SDS011;6998;53.608;9.958;2023-04-06T10:51:51;5.60;;;4.60;;
13855;SDS011;6998;53.608;9.958;2023-04-06T10:54:20;5.57;;;4.85;;
13855;SDS011;6998;53.608;9.958;2023-04-06T10:56:48;7.18;;;4.85;;
13855;SDS011;6998;53.608;9.958;2023-04-06T10:59:20;6.93;;;4.25;;
13855;SDS011;6998;53.608;9.958;2023-04-06T11:01:49;6.47;;;4.88;;
13855;SDS011;6998;53.608;9.958;2023-04-06T11:04:16;7.32;;;5.30;;
13855;SDS011;6998;53.608;9.958;2023-04-06T11:06:46;6.53;;;5.38;;
13855;SDS011;6998;53.608;9.958;2023-04-06T11:09:23;5.68;;;5.07;;
13855;SDS011;6998;53.608;9.958;2023-04-06T11:11:52;6.60;;;5.68;;
13855;SDS011;6998;53.608;9.958;2023-04-06T11:14:22;7.47;;;6.32;;
13855;SDS011;6998;53.608;9.958;2023-04-06T11:16:51;6.50;;;5.72;;
13855;SDS011;6998;53.608;9.958;2023-04-06T11:19:20;8.73;;;6.28;;
13855;SDS011;6998;53.608;9.958;2023-04-06T11:21:50;7.57;;;6.53;;
13855;SDS011;6998;53.608;9.958;2023-04-06T11:24:17;6.20;;;5.60;;
13855;SDS011;6998;53.608;9.958;2023-04-06T11:26:46;7.38;;;6.13;;
13855;SDS011;6998;53.608;9.958;2023-04-06T11:29:16;7.85;;;6.28;;
13855;SDS011;6998;53.608;9.958;2023-04-06T11:31:46;9.25;;;6.00;;
13855;SDS011;6998;53.608;9.958;2023-04-06T11:34:16;7.15;;;6.38;;
13855;SDS011;6998;53.608;9.958;2023-04-06T11:36:44;7.80;;;5.97;;
13855;SDS011;6998;53.608;9.958;2023-04-06T11:39:11;8.13;;;6.47;;
13855;SDS011;6998;53.608;9.958;2023-04-06T11:41:39;7.07;;;6.20;;
13855;SDS011;6998;53.608;9.958;2023-04-06T11:44:06;7.20;;;6.50;;
13855;SDS011;6998;53.608;9.958;2023-04-06T11:46:33;9.38;;;6.65;;
13855;SDS011;6998;53.608;9.958;2023-04-06T11:49:02;7.63;;;6.78;;
13855;SDS011;6998;53.608;9.958;2023-04-06T11:51:29;7.80;;;7.00;;
13855;SDS011;6998;53.608;9.958;2023-04-06T11:53:56;8.95;;;6.88;;
13855;SDS011;6998;53.608;9.958;2023-04-06T11:56:26;8.20;;;6.68;;
13855;SDS011;6998;53.608;9.958;2023-04-06T11:58:54;7.53;;;6.47;;
13855;SDS011;6998;53.608;9.958;2023-04-06T12:01:22;7.25;;;6.55;;
13855;SDS011;6998;53.608;9.958;2023-04-06T12:03:50;8.00;;;6.60;;
13855;SDS011;6998;53.608;9.958;2023-04-06T12:06:20;7.53;;;6.78;;
13855;SDS011;6998;53.608;9.958;2023-04-06T12:08:47;8.27;;;7.05;;
13855;SDS011;6998;53.608;9.958;2023-04-06T12:11:14;7.35;;;6.60;;
13855;SDS011;6998;53.608;9.958;2023-04-06T12:13:41;7.30;;;6.53;;
13855;SDS011;6998;53.608;9.958;2023-04-06T12:16:08;7.93;;;6.95;;
13855;SDS011;6998;53.608;9.958;2023-04-06T12:18:37;8.05;;;6.72;;
13855;SDS011;6998;53.608;9.958;2023-04-06T12:21:35;9.20;;;7.07;;
13855;SDS011;6998;53.608;9.958;2023-04-06T12:24:03;7.22;;;6.53;;
13855;SDS011;6998;53.608;9.958;2023-04-06T12:26:30;7.88;;;6.65;;
13855;SDS011;6998;53.608;9.958;2023-04-06T12:28:58;8.45;;;7.13;;
13855;SDS011;6998;53.608;9.958;2023-04-06T12:31:31;8.23;;;7.00;;
13855;SDS011;6998;53.608;9.958;2023-04-06T12:33:59;7.00;;;6.30;;
13855;SDS011;6998;53.608;9.958;2023-04-06T12:36:28;7.20;;;6.50;;
13855;SDS011;6998;53.608;9.958;2023-04-06T12:38:57;8.48;;;6.50;;
13855;SDS011;6998;53.608;9.958;2023-04-06T12:41:25;7.65;;;6.85;;
13855;SDS011;6998;53.608;9.958;2023-04-06T12:43:52;7.85;;;7.05;;
13855;SDS011;6998;53.608;9.958;2023-04-06T12:46:19;7.60;;;6.78;;
13855;SDS011;6998;53.608;9.958;2023-04-06T12:48:46;7.90;;;6.95;;
13855;SDS011;6998;53.608;9.958;2023-04-06T12:51:27;7.75;;;6.75;;
13855;SDS011;6998;53.608;9.958;2023-04-06T12:54:00;7.68;;;6.32;;
13855;SDS011;6998;53.608;9.958;2023-04-06T12:56:31;7.90;;;7.13;;
13855;SDS011;6998;53.608;9.958;2023-04-06T12:58:58;7.93;;;7.05;;
13855;SDS011;6998;53.608;9.958;2023-04-06T13:01:25;8.25;;;7.22;;
13855;SDS011;6998;53.608;9.958;2023-04-06T13:03:53;8.63;;;7.00;;
13855;SDS011;6998;53.608;9.958;2023-04-06T13:06:20;7.82;;;7.03;;
13855;SDS011;6998;53.608;9.958;2023-04-06T13:08:52;8.35;;;7.20;;
13855;SDS011;6998;53.608;9.958;2023-04-06T13:11:21;8.02;;;7.18;;
13855;SDS011;6998;53.608;9.958;2023-04-06T13:13:49;8.95;;;7.35;;
13855;SDS011;6998;53.608;9.958;2023-04-06T13:16:16;9.35;;;7.20;;
13855;SDS011;6998;53.608;9.958;2023-04-06T13:18:43;7.72;;;6.93;;
13855;SDS011;6998;53.608;9.958;2023-04-06T13:21:12;7.95;;;7.13;;
13855;SDS011;6998;53.608;9.958;2023-04-06T13:23:41;9.63;;;6.70;;
13855;SDS011;6998;53.608;9.958;2023-04-06T13:26:10;7.70;;;7.00;;
13855;SDS011;6998;53.608;9.958;2023-04-06T13:28:39;8.75;;;7.50;;
13855;SDS011;6998;53.608;9.958;2023-04-06T13:31:07;8.52;;;6.72;;
13855;SDS011;6998;53.608;9.958;2023-04-06T13:33:34;9.45;;;7.72;;
13855;SDS011;6998;53.608;9.958;2023-04-06T13:36:02;8.25;;;7.35;;
13855;SDS011;6998;53.608;9.958;2023-04-06T13:38:30;9.48;;;7.35;;
13855;SDS011;6998;53.608;9.958;2023-04-06T13:40:58;9.60;;;7.65;;
13855;SDS011;6998;53.608;9.958;2023-04-06T13:43:26;9.82;;;7.25;;
13855;SDS011;6998;53.608;9.958;2023-04-06T13:45:54;8.65;;;7.75;;
13855;SDS011;6998;53.608;9.958;2023-04-06T13:48:24;8.05;;;7.25;;
13855;SDS011;6998;53.608;9.958;2023-04-06T13:50:51;8.82;;;7.25;;
13855;SDS011;6998;53.608;9.958;2023-04-06T13:53:18;7.40;;;6.65;;
13855;SDS011;6998;53.608;9.958;2023-04-06T13:55:51;7.38;;;6.63;;
13855;SDS011;6998;53.608;9.958;2023-04-06T13:58:19;8.15;;;7.32;;
13855;SDS011;6998;53.608;9.958;2023-04-06T14:00:46;7.57;;;6.88;;
13855;SDS011;6998;53.608;9.958;2023-04-06T14:03:14;9.85;;;7.47;;
13855;SDS011;6998;53.608;9.958;2023-04-06T14:05:41;9.23;;;7.30;;
13855;SDS011;6998;53.608;9.958;2023-04-06T14:08:11;7.60;;;6.88;;
13855;SDS011;6998;53.608;9.958;2023-04-06T14:10:38;9.02;;;7.43;;
13855;SDS011;6998;53.608;9.958;2023-04-06T14:13:05;8.75;;;6.88;;
13855;SDS011;6998;53.608;9.958;2023-04-06T14:15:32;8.25;;;7.25;;
13855;SDS011;6998;53.608;9.958;2023-04-06T14:17:59;8.35;;;7.55;;
13855;SDS011;6998;53.608;9.958;2023-04-06T14:20:28;8.20;;;7.40;;
13855;SDS011;6998;53.608;9.958;2023-04-06T14:22:59;8.38;;;7.47;;
13855;SDS011;6998;53.608;9.958;2023-04-06T14:25:26;8.43;;;7.22;;
13855;SDS011;6998;53.608;9.958;2023-04-06T14:27:53;8.63;;;7.78;;
13855;SDS011;6998;53.608;9.958;2023-04-06T14:30:20;8.27;;;7.32;;
13855;SDS011;6998;53.608;9.958;2023-04-06T14:32:48;8.88;;;7.05;;
13855;SDS011;6998;53.608;9.958;2023-04-06T14:35:15;9.13;;;8.20;;
13855;SDS011;6998;53.608;9.958;2023-04-06T14:37:43;8.02;;;7.22;;
13855;SDS011;6998;53.608;9.958;2023-04-06T14:40:13;20.95;;;7.88;;
13855;SDS011;6998;53.608;9.958;2023-04-06T14:42:40;9.35;;;7.78;;
13855;SDS011;6998;53.608;9.958;2023-04-06T14:45:07;13.82;;;9.07;;
13855;SDS011;6998;53.608;9.958;2023-04-06T14:47:35;8.57;;;7.78;;
13855;SDS011;6998;53.608;9.958;2023-04-06T14:50:02;8.13;;;7.28;;
13855;SDS011;6998;53.608;9.958;2023-04-06T14:52:29;10.43;;;7.53;;
13855;SDS011;6998;53.608;9.958;2023-04-06T14:54:58;8.90;;;7.28;;
13855;SDS011;6998;53.608;9.958;2023-04-06T14:57:25;9.35;;;8.30;;
13855;SDS011;6998;53.608;9.958;2023-04-06T14:59:52;9.75;;;8.07;;
13855;SDS011;6998;53.608;9.958;2023-04-06T15:02:19;10.15;;;8.25;;
13855;SDS011;6998;53.608;9.958;2023-04-06T15:04:46;8.25;;;7.45;;
13855;SDS011;6998;53.608;9.958;2023-04-06T15:07:13;9.60;;;7.00;;
13855;SDS011;6998;53.608;9.958;2023-04-06T15:09:42;9.75;;;7.40;;
13855;SDS011;6998;53.608;9.958;2023-04-06T15:12:11;8.02;;;7.22;;
13855;SDS011;6998;53.608;9.958;2023-04-06T15:14:38;7.55;;;6.85;;
13855;SDS011;6998;53.608;9.958;2023-04-06T15:17:05;8.40;;;7.07;;
13855;SDS011;6998;53.608;9.958;2023-04-06T15:19:32;7.88;;;7.00;;
13855;SDS011;6998;53.608;9.958;2023-04-06T15:21:59;8.23;;;7.43;;
13855;SDS011;6998;53.608;9.958;2023-04-06T15:24:25;8.38;;;7.18;;
13855;SDS011;6998;53.608;9.958;2023-04-06T15:26:52;8.32;;;7.13;;
13855;SDS011;6998;53.608;9.958;2023-04-06T15:29:21;8.10;;;6.38;;
13855;SDS011;6998;53.608;9.958;2023-04-06T15:31:48;8.23;;;6.55;;
13855;SDS011;6998;53.608;9.958;2023-04-06T15:34:17;9.15;;;7.20;;
13855;SDS011;6998;53.608;9.958;2023-04-06T15:36:44;7.53;;;6.82;;
13855;SDS011;6998;53.608;9.958;2023-04-06T15:39:14;7.35;;;6.50;;
13855;SDS011;6998;53.608;9.958;2023-04-06T15:41:42;8.52;;;6.32;;
13855;SDS011;6998;53.608;9.958;2023-04-06T15:44:08;8.15;;;6.53;;
13855;SDS011;6998;53.608;9.958;2023-04-06T15:46:37;7.30;;;6.20;;
13855;SDS011;6998;53.608;9.958;2023-04-06T15:49:04;7.50;;;6.75;;
13855;SDS011;6998;53.608;9.958;2023-04-06T15:51:31;7.28;;;6.57;;
13855;SDS011;6998;53.608;9.958;2023-04-06T15:53:58;11.13;;;7.53;;
13855;SDS011;6998;53.608;9.958;2023-04-06T15:56:25;8.48;;;7.68;;
13855;SDS011;6998;53.608;9.958;2023-04-06T15:58:51;7.82;;;7.05;;
13855;SDS011;6998;53.608;9.958;2023-04-06T16:01:18;8.52;;;6.82;;
13855;SDS011;6998;53.608;9.958;2023-04-06T16:03:47;9.35;;;6.55;;
13855;SDS011;6998;53.608;9.958;2023-04-06T16:06:14;7.82;;;7.03;;
13855;SDS011;6998;53.608;9.958;2023-04-06T16:08:41;8.65;;;6.90;;
13855;SDS011;6998;53.608;9.958;2023-04-06T16:11:08;8.60;;;7.20;;
13855;SDS011;6998;53.608;9.958;2023-04-06T16:13:35;8.52;;;7.72;;
13855;SDS011;6998;53.608;9.958;2023-04-06T16:16:02;8.75;;;7.32;;
13855;SDS011;6998;53.608;9.958;2023-04-06T16:18:29;7.60;;;6.80;;
13855;SDS011;6998;53.608;9.958;2023-04-06T16:20:58;9.00;;;7.47;;
13855;SDS011;6998;53.608;9.958;2023-04-06T16:23:25;9.50;;;7.20;;
13855;SDS011;6998;53.608;9.958;2023-04-06T16:25:52;8.75;;;7.45;;
13855;SDS011;6998;53.608;9.958;2023-04-06T16:28:21;8.45;;;6.93;;
13855;SDS011;6998;53.608;9.958;2023-04-06T16:30:49;9.07;;;7.90;;
13855;SDS011;6998;53.608;9.958;2023-04-06T16:33:24;10.60;;;7.72;;
13855;SDS011;6998;53.608;9.958;2023-04-06T16:35:51;8.32;;;7.53;;
13855;SDS011;6998;53.608;9.958;2023-04-06T16:38:20;7.85;;;7.07;;
13855;SDS011;6998;53.608;9.958;2023-04-06T16:40:57;10.50;;;7.82;;
13855;SDS011;6998;53.608;9.958;2023-04-06T16:43:25;8.45;;;7.25;;
13855;SDS011;6998;53.608;9.958;2023-04-06T16:45:52;9.27;;;8.13;;
13855;SDS011;6998;53.608;9.958;2023-04-06T16:48:19;9.10;;;7.60;;
13855;SDS011;6998;53.608;9.958;2023-04-06T16:50:46;8.48;;;7.65;;
13855;SDS011;6998;53.608;9.958;2023-04-06T16:53:13;8.23;;;7.22;;
13855;SDS011;6998;53.608;9.958;2023-04-06T16:55:42;8.20;;;7.30;;
13855;SDS011;6998;53.608;9.958;2023-04-06T16:58:28;8.38;;;7.47;;
13855;SDS011;6998;53.608;9.958;2023-04-06T17:02:01;8.18;;;7.38;;
13855;SDS011;6998;53.608;9.958;2023-04-06T17:18:12;8.65;;;7.45;;
13855;SDS011;6998;53.608;9.958;2023-04-06T17:20:40;8.65;;;7.75;;
13855;SDS011;6998;53.608;9.958;2023-04-06T17:23:07;8.93;;;7.70;;
13855;SDS011;6998;53.608;9.958;2023-04-06T17:25:36;9.07;;;8.10;;
13855;SDS011;6998;53.608;9.958;2023-04-06T17:28:03;8.05;;;7.22;;
13855;SDS011;6998;53.608;9.958;2023-04-06T17:30:30;7.70;;;6.90;;
13855;SDS011;6998;53.608;9.958;2023-04-06T17:32:58;8.65;;;7.25;;
13855;SDS011;6998;53.608;9.958;2023-04-06T17:35:48;8.50;;;7.22;;
13855;SDS011;6998;53.608;9.958;2023-04-06T17:38:15;9.50;;;7.15;;
13855;SDS011;6998;53.608;9.958;2023-04-06T17:40:42;10.02;;;7.70;;
13855;SDS011;6998;53.608;9.958;2023-04-06T17:43:09;8.70;;;7.80;;
13855;SDS011;6998;53.608;9.958;2023-04-06T17:45:36;9.40;;;7.88;;
13855;SDS011;6998;53.608;9.958;2023-04-06T17:48:03;9.65;;;7.90;;
13855;SDS011;6998;53.608;9.958;2023-04-06T17:50:30;10.15;;;8.38;;
13855;SDS011;6998;53.608;9.958;2023-04-06T17:52:59;10.30;;;7.90;;
13855;SDS011;6998;53.608;9.958;2023-04-06T17:55:26;12.65;;;8.32;;
13855;SDS011;6998;53.608;9.958;2023-04-06T17:57:53;8.50;;;7.40;;
13855;SDS011;6998;53.608;9.958;2023-04-06T18:00:20;11.00;;;8.25;;
13855;SDS011;6998;53.608;9.958;2023-04-06T18:02:49;9.57;;;7.57;;
13855;SDS011;6998;53.608;9.958;2023-04-06T18:05:17;9.50;;;7.95;;
13855;SDS011;6998;53.608;9.958;2023-04-06T18:07:44;11.73;;;9.23;;
13855;SDS011;6998;53.608;9.958;2023-04-06T18:10:13;9.88;;;8.63;;
13855;SDS011;6998;53.608;9.958;2023-04-06T18:12:41;10.48;;;7.90;;
13855;SDS011;6998;53.608;9.958;2023-04-06T18:15:11;10.07;;;7.93;;
13855;SDS011;6998;53.608;9.958;2023-04-06T18:17:39;11.65;;;7.80;;
13855;SDS011;6998;53.608;9.958;2023-04-06T18:20:08;14.15;;;11.88;;
13855;SDS011;6998;53.608;9.958;2023-04-06T18:22:35;10.38;;;8.98;;
13855;SDS011;6998;53.608;9.958;2023-04-06T18:25:03;10.05;;;8.45;;
13855;SDS011;6998;53.608;9.958;2023-04-06T18:27:32;12.63;;;10.80;;
13855;SDS011;6998;53.608;9.958;2023-04-06T18:29:59;13.65;;;11.43;;
13855;SDS011;6998;53.608;9.958;2023-04-06T18:32:26;11.20;;;9.45;;
13855;SDS011;6998;53.608;9.958;2023-04-06T18:34:54;10.95;;;8.98;;
13855;SDS011;6998;53.608;9.958;2023-04-06T18:37:22;10.73;;;9.63;;
13855;SDS011;6998;53.608;9.958;2023-04-06T18:39:50;11.70;;;9.15;;
13855;SDS011;6998;53.608;9.958;2023-04-06T18:42:18;10.88;;;8.45;;
13855;SDS011;6998;53.608;9.958;2023-04-06T18:45:03;10.70;;;7.90;;
13855;SDS011;6998;53.608;9.958;2023-04-06T18:47:39;10.73;;;9.45;;
13855;SDS011;6998;53.608;9.958;2023-04-06T18:50:07;10.60;;;8.85;;
13855;SDS011;6998;53.608;9.958;2023-04-06T18:52:35;10.95;;;9.20;;
13855;SDS011;6998;53.608;9.958;2023-04-06T18:55:03;12.05;;;9.77;;
13855;SDS011;6998;53.608;9.958;2023-04-06T18:57:33;10.07;;;9.10;;
13855;SDS011;6998;53.608;9.958;2023-04-06T19:00:03;13.73;;;11.10;;
13855;SDS011;6998;53.608;9.958;2023-04-06T19:02:32;18.10;;;14.52;;
13855;SDS011;6998;53.608;9.958;2023-04-06T19:05:00;11.73;;;9.48;;
13855;SDS011;6998;53.608;9.958;2023-04-06T19:07:39;12.77;;;10.15;;
13855;SDS011;6998;53.608;9.958;2023-04-06T19:10:13;10.93;;;9.40;;
13855;SDS011;6998;53.608;9.958;2023-04-06T19:15:30;11.00;;;8.90;;
13855;SDS011;6998;53.608;9.958;2023-04-06T19:24:46;10.25;;;8.93;;
13855;SDS011;6998;53.608;9.958;2023-04-06T19:27:14;15.07;;;12.60;;
13855;SDS011;6998;53.608;9.958;2023-04-06T19:29:56;12.77;;;10.57;;
13855;SDS011;6998;53.608;9.958;2023-04-06T19:32:26;13.00;;;10.10;;
13855;SDS011;6998;53.608;9.958;2023-04-06T19:38:27;14.23;;;10.43;;
